sensor_id;sensor_type;location;lat;lon;timestamp;P1;P2;P0
74440;PMS7003;62870;54.692;25.284;2024-02-23T00:04:50;6;5.6;4.6
74440;PMS7003;62870;54.692;25.284;2024-02-23T00:09:44;7;6.2;5
74440;PMS7003;62870;54.692;25.284;2024-02-23T00:15:04;6.4;5.6;4.4
74440;PMS7003;62870;54.692;25.284;2024-02-23T00:19:30;6.4;5.6;4.4
74440;PMS7003;62870;54.692;25.284;2024-02-23T00:24:38;6.2;6;4.8
74440;PMS7003;62870;54.692;25.284;2024-02-23T00:29:22;6.8;5.5;4.5
74440;PMS7003;62870;54.692;25.284;2024-02-23T00:34:34;6.2;5.8;4.2
74440;PMS7003;62870;54.692;25.284;2024-02-23T00:39:40;5.2;4.8;4
74440;PMS7003;62870;54.692;25.284;2024-02-23T00:45:04;6.6;5.6;4.2
74440;PMS7003;62870;54.692;25.284;2024-02-23T00:50:04;5.4;5;4.4
74440;PMS7003;62870;54.692;25.284;2024-02-23T00:54:34;5.4;5;4.4
74440;PMS7003;62870;54.692;25.284;2024-02-23T00:59:54;5;5;4
74440;PMS7003;62870;54.692;25.284;2024-02-23T01:04:14;5.2;5;4.4
74440;PMS7003;62870;54.692;25.284;2024-02-23T01:10:04;5.6;5.6;4.6
74440;PMS7003;62870;54.692;25.284;2024-02-23T01:14:40;5.6;5.6;4.6
74440;PMS7003;62870;54.692;25.284;2024-02-23T01:19:54;7;6.6;4.8
74440;PMS7003;62870;54.692;25.284;2024-02-23T01:24:48;5.8;5.2;4
74440;PMS7003;62870;54.692;25.284;2024-02-23T01:29:42;5.8;5.6;5
74440;PMS7003;62870;54.692;25.284;2024-02-23T01:34:22;5.3;5;4.3
74440;PMS7003;62870;54.692;25.284;2024-02-23T01:40:04;6;5.8;5
74440;PMS7003;62870;54.692;25.284;2024-02-23T01:44:22;6;5.8;5
74440;PMS7003;62870;54.692;25.284;2024-02-23T01:49:28;6.4;5.6;4.6
74440;PMS7003;62870;54.692;25.284;2024-02-23T01:55:04;6.2;5.8;4.4
74440;PMS7003;62870;54.692;25.284;2024-02-23T01:59:14;6.2;5.8;4.4
74440;PMS7003;62870;54.692;25.284;2024-02-23T02:04:14;5.6;5.6;4.6
74440;PMS7003;62870;54.692;25.284;2024-02-23T02:09:22;6.4;5.6;4.2
74440;PMS7003;62870;54.692;25.284;2024-02-23T02:14:22;6.2;5.6;4.8
74440;PMS7003;62870;54.692;25.284;2024-02-23T02:20:04;6.2;5.8;4.4
74440;PMS7003;62870;54.692;25.284;2024-02-23T02:25:05;5.8;5.8;4.8
74440;PMS7003;62870;54.692;25.284;2024-02-23T02:29:44;5.8;5.8;4.8
74440;PMS7003;62870;54.692;25.284;2024-02-23T02:34:46;6.8;5.8;5
74440;PMS7003;62870;54.692;25.284;2024-02-23T02:39:34;5.8;5.4;4.6
74440;PMS7003;62870;54.692;25.284;2024-02-23T02:44:24;5.6;5.4;4
74440;PMS7003;62870;54.692;25.284;2024-02-23T02:49:32;6.6;6.2;5
74440;PMS7003;62870;54.692;25.284;2024-02-23T02:55:04;6.6;6;4.6
74440;PMS7003;62870;54.692;25.284;2024-02-23T02:59:33;6.6;6;4.6
74440;PMS7003;62870;54.692;25.284;2024-02-23T03:04:55;6.4;5.8;4.2
74440;PMS7003;62870;54.692;25.284;2024-02-23T03:10:04;6.4;6.2;5
74440;PMS7003;62870;54.692;25.284;2024-02-23T03:15:04;6.2;6;5
74440;PMS7003;62870;54.692;25.284;2024-02-23T03:19:30;6.2;6;5
74440;PMS7003;62870;54.692;25.284;2024-02-23T03:24:44;6.6;6;4.2
74440;PMS7003;62870;54.692;25.284;2024-02-23T03:30:04;6.5;6;5
74440;PMS7003;62870;54.692;25.284;2024-02-23T03:34:26;6.5;6;5
74440;PMS7003;62870;54.692;25.284;2024-02-23T03:39:30;7.6;6.8;5.4
74440;PMS7003;62870;54.692;25.284;2024-02-23T03:44:14;6.2;6.2;4.8
74440;PMS7003;62870;54.692;25.284;2024-02-23T03:49:14;5.8;5.6;5
74440;PMS7003;62870;54.692;25.284;2024-02-23T03:54:14;6.4;6.2;5
74440;PMS7003;62870;54.692;25.284;2024-02-23T04:00:04;7;7;5.6
74440;PMS7003;62870;54.692;25.284;2024-02-23T04:04:14;7;7;5.6
74440;PMS7003;62870;54.692;25.284;2024-02-23T04:10:04;7.2;7;5.8
74440;PMS7003;62870;54.692;25.284;2024-02-23T04:15:04;7.8;7.2;5.6
74440;PMS7003;62870;54.692;25.284;2024-02-23T04:20:05;8;7.2;5.2
74440;PMS7003;62870;54.692;25.284;2024-02-23T04:24:40;8;7.2;5.2
74440;PMS7003;62870;54.692;25.284;2024-02-23T04:29:54;7;6.8;5.4
74440;PMS7003;62870;54.692;25.284;2024-02-23T04:35:04;8.4;7.8;5.6
74440;PMS7003;62870;54.692;25.284;2024-02-23T04:40:04;7.8;7.4;5.6
74440;PMS7003;62870;54.692;25.284;2024-02-23T04:44:16;7.8;7.4;5.6
74440;PMS7003;62870;54.692;25.284;2024-02-23T04:50:02;7.8;7.6;6
74440;PMS7003;62870;54.692;25.284;2024-02-23T04:55:04;7.8;7.6;5.6
74440;PMS7003;62870;54.692;25.284;2024-02-23T04:59:44;7.8;7.6;5.6
74440;PMS7003;62870;54.692;25.284;2024-02-23T05:05:04;7.8;7.4;5.8
74440;PMS7003;62870;54.692;25.284;2024-02-23T05:09:30;7.8;7.4;5.8
74440;PMS7003;62870;54.692;25.284;2024-02-23T05:14:40;7.4;7.2;6
74440;PMS7003;62870;54.692;25.284;2024-02-23T05:19:34;10.2;9.6;7
74440;PMS7003;62870;54.692;25.284;2024-02-23T05:24:14;10;9.4;7.4
74440;PMS7003;62870;54.692;25.284;2024-02-23T05:29:22;10;9.2;6.4
74440;PMS7003;62870;54.692;25.284;2024-02-23T05:34:34;9.8;9.3;7.8
74440;PMS7003;62870;54.692;25.284;2024-02-23T05:39:14;7.8;7.4;5.4
74440;PMS7003;62870;54.692;25.284;2024-02-23T05:44:54;9.8;9.2;7.2
74440;PMS7003;62870;54.692;25.284;2024-02-23T05:49:44;10.8;10.2;7.4
74440;PMS7003;62870;54.692;25.284;2024-02-23T05:55:04;10.2;9.4;7.6
74440;PMS7003;62870;54.692;25.284;2024-02-23T06:00:04;11.4;10.6;7.6
74440;PMS7003;62870;54.692;25.284;2024-02-23T06:04:54;11.4;10.6;7.6
74440;PMS7003;62870;54.692;25.284;2024-02-23T06:09:16;10.6;10.4;8
74440;PMS7003;62870;54.692;25.284;2024-02-23T06:14:32;11;10.6;7.2
74440;PMS7003;62870;54.692;25.284;2024-02-23T06:19:50;12.2;11.8;9.2
74440;PMS7003;62870;54.692;25.284;2024-02-23T06:24:40;11.4;10.8;8
74440;PMS7003;62870;54.692;25.284;2024-02-23T06:30:04;12.2;11.2;7.8
74440;PMS7003;62870;54.692;25.284;2024-02-23T06:34:14;12.2;11.2;7.8
74440;PMS7003;62870;54.692;25.284;2024-02-23T06:39:17;12;11;7.8
74440;PMS7003;62870;54.692;25.284;2024-02-23T06:44:30;13.8;12.6;9.2
74440;PMS7003;62870;54.692;25.284;2024-02-23T06:49:14;11.4;11;8
74440;PMS7003;62870;54.692;25.284;2024-02-23T06:54:54;12.4;11.4;8.6
74440;PMS7003;62870;54.692;25.284;2024-02-23T06:59:32;12.6;12.2;9.2
74440;PMS7003;62870;54.692;25.284;2024-02-23T07:04:14;11.6;11.4;8.8
74440;PMS7003;62870;54.692;25.284;2024-02-23T07:09:34;16;13.8;10.2
74440;PMS7003;62870;54.692;25.284;2024-02-23T07:14:46;14.2;12.4;9.6
74440;PMS7003;62870;54.692;25.284;2024-02-23T07:20:04;12.4;12;9.2
74440;PMS7003;62870;54.692;25.284;2024-02-23T07:24:44;12.4;12;9.2
74440;PMS7003;62870;54.692;25.284;2024-02-23T07:29:26;13.2;12.4;9.8
74440;PMS7003;62870;54.692;25.284;2024-02-23T07:35:04;14;12.8;9.8
74440;PMS7003;62870;54.692;25.284;2024-02-23T07:39:54;14;12.8;9.8
74440;PMS7003;62870;54.692;25.284;2024-02-23T07:44:50;13.6;12.8;9.6
74440;PMS7003;62870;54.692;25.284;2024-02-23T07:49:22;11.8;11.8;9.2
74440;PMS7003;62870;54.692;25.284;2024-02-23T07:54:51;12.4;12;9.2
74440;PMS7003;62870;54.692;25.284;2024-02-23T07:59:38;14.4;13.2;10.4
74440;PMS7003;62870;54.692;25.284;2024-02-23T08:05:04;13.6;13.4;9.8
74440;PMS7003;62870;54.692;25.284;2024-02-23T08:09:14;13.6;13.4;9.8
74440;PMS7003;62870;54.692;25.284;2024-02-23T08:14:50;14.4;14;10.4
74440;PMS7003;62870;54.692;25.284;2024-02-23T08:19:30;14.4;13;9.6
74440;PMS7003;62870;54.692;25.284;2024-02-23T08:25:04;14.6;13.2;10
74440;PMS7003;62870;54.692;25.284;2024-02-23T08:29:22;14.6;13.2;10
74440;PMS7003;62870;54.692;25.284;2024-02-23T08:34:14;14.6;12.8;9.6
74440;PMS7003;62870;54.692;25.284;2024-02-23T08:39:28;14.8;14.5;10.5
74440;PMS7003;62870;54.692;25.284;2024-02-23T08:44:26;14.6;13.6;10.6
74440;PMS7003;62870;54.692;25.284;2024-02-23T08:49:14;15.4;13.8;10.4
74440;PMS7003;62870;54.692;25.284;2024-02-23T08:55:04;14.2;12.6;9.8
74440;PMS7003;62870;54.692;25.284;2024-02-23T09:00:05;13;12.8;9.4
74440;PMS7003;62870;54.692;25.284;2024-02-23T09:04:24;13;12.8;9.4
74440;PMS7003;62870;54.692;25.284;2024-02-23T09:09:16;14.8;13.4;10.6
74440;PMS7003;62870;54.692;25.284;2024-02-23T09:14:54;12.4;12;8.6
74440;PMS7003;62870;54.692;25.284;2024-02-23T09:19:32;14;13;9.6
74440;PMS7003;62870;54.692;25.284;2024-02-23T09:24:14;14;12.8;10
74440;PMS7003;62870;54.692;25.284;2024-02-23T09:30:05;13;12;9.4
74440;PMS7003;62870;54.692;25.284;2024-02-23T09:34:14;13;12;9.4
74440;PMS7003;62870;54.692;25.284;2024-02-23T09:39:54;11.8;10.8;8.8
74440;PMS7003;62870;54.692;25.284;2024-02-23T09:44:36;13.8;13.2;10.4
74440;PMS7003;62870;54.692;25.284;2024-02-23T09:50:05;13.2;10.8;8.4
74440;PMS7003;62870;54.692;25.284;2024-02-23T09:54:30;13.2;10.8;8.4
74440;PMS7003;62870;54.692;25.284;2024-02-23T09:59:36;13.4;12.2;9.4
74440;PMS7003;62870;54.692;25.284;2024-02-23T10:05:02;13;12.2;9.2
74440;PMS7003;62870;54.692;25.284;2024-02-23T10:09:14;13;12.8;9.4
74440;PMS7003;62870;54.692;25.284;2024-02-23T10:14:15;15;12.8;9
74440;PMS7003;62870;54.692;25.284;2024-02-23T10:19:14;12.6;11.6;8.8
74440;PMS7003;62870;54.692;25.284;2024-02-23T10:24:41;11.8;11.6;9
74440;PMS7003;62870;54.692;25.284;2024-02-23T10:29:42;13.2;11.8;9
74440;PMS7003;62870;54.692;25.284;2024-02-23T10:35:04;11.3;10.5;7.5
74440;PMS7003;62870;54.692;25.284;2024-02-23T10:39:26;11.3;10.5;7.5
74440;PMS7003;62870;54.692;25.284;2024-02-23T10:45:05;12;11.6;8.8
74440;PMS7003;62870;54.692;25.284;2024-02-23T10:49:44;12;11.6;8.8
74440;PMS7003;62870;54.692;25.284;2024-02-23T10:54:54;12;11.6;8.6
74440;PMS7003;62870;54.692;25.284;2024-02-23T11:00:05;11.2;10.6;8.4
74440;PMS7003;62870;54.692;25.284;2024-02-23T11:04:57;11.2;10.6;8.4
74440;PMS7003;62870;54.692;25.284;2024-02-23T11:10:06;10.8;10.2;7.4
74440;PMS7003;62870;54.692;25.284;2024-02-23T11:15:06;11.2;11;8.2
74440;PMS7003;62870;54.692;25.284;2024-02-23T11:19:32;11.2;11;8.2
74440;PMS7003;62870;54.692;25.284;2024-02-23T11:25:05;11.6;11.2;7.6
74440;PMS7003;62870;54.692;25.284;2024-02-23T11:30:05;11.6;10.8;8.6
74440;PMS7003;62870;54.692;25.284;2024-02-23T11:34:53;11.6;10.8;8.6
74440;PMS7003;62870;54.692;25.284;2024-02-23T11:40:07;11.5;10.5;8
74440;PMS7003;62870;54.692;25.284;2024-02-23T11:44:46;11.5;10.5;8
74440;PMS7003;62870;54.692;25.284;2024-02-23T11:49:14;13;11.4;9
74440;PMS7003;62870;54.692;25.284;2024-02-23T11:54:56;11.8;11.4;8.4
74440;PMS7003;62870;54.692;25.284;2024-02-23T11:59:40;11.4;11.2;8
74440;PMS7003;62870;54.692;25.284;2024-02-23T12:04:14;11.8;11.2;8.8
74440;PMS7003;62870;54.692;25.284;2024-02-23T12:10:02;12;11.6;9
74440;PMS7003;62870;54.692;25.284;2024-02-23T12:14:35;12;10.6;7.8
74440;PMS7003;62870;54.692;25.284;2024-02-23T12:20:06;11.2;10.2;7.8
74440;PMS7003;62870;54.692;25.284;2024-02-23T12:24:41;11.2;10.2;7.8
74440;PMS7003;62870;54.692;25.284;2024-02-23T12:29:51;12.2;11;8.2
74440;PMS7003;62870;54.692;25.284;2024-02-23T12:34:43;10.8;10.2;8.6
74440;PMS7003;62870;54.692;25.284;2024-02-23T12:39:56;11.6;10.6;8
74440;PMS7003;62870;54.692;25.284;2024-02-23T12:45:06;12.6;12.2;8.8
74440;PMS7003;62870;54.692;25.284;2024-02-23T12:50:07;12.2;12;8.8
74440;PMS7003;62870;54.692;25.284;2024-02-23T12:54:44;12.2;12;8.8
74440;PMS7003;62870;54.692;25.284;2024-02-23T13:00:05;12.2;11.4;8.8
74440;PMS7003;62870;54.692;25.284;2024-02-23T13:05:04;11.6;10.6;8
74440;PMS7003;62870;54.692;25.284;2024-02-23T13:09:16;11.6;10.6;8
74440;PMS7003;62870;54.692;25.284;2024-02-23T13:14:32;11.8;10.8;8.4
74440;PMS7003;62870;54.692;25.284;2024-02-23T13:20:05;11.6;10.6;7.8
74440;PMS7003;62870;54.692;25.284;2024-02-23T13:24:22;11.6;10.6;7.8
74440;PMS7003;62870;54.692;25.284;2024-02-23T13:29:14;10.2;10.2;8.2
74440;PMS7003;62870;54.692;25.284;2024-02-23T13:34:14;11.8;10.8;7.8
74440;PMS7003;62870;54.692;25.284;2024-02-23T13:39:14;11.4;10.8;8
74440;PMS7003;62870;54.692;25.284;2024-02-23T13:44:26;10.3;10.3;8.3
74440;PMS7003;62870;54.692;25.284;2024-02-23T13:49:14;11.8;10.4;7.8
74440;PMS7003;62870;54.692;25.284;2024-02-23T13:55:05;10;9.2;7.6
74440;PMS7003;62870;54.692;25.284;2024-02-23T13:59:44;10;9.2;7.6
74440;PMS7003;62870;54.692;25.284;2024-02-23T14:04:26;10;9.8;7.6
74440;PMS7003;62870;54.692;25.284;2024-02-23T14:10:03;10.8;9.8;7.6
74440;PMS7003;62870;54.692;25.284;2024-02-23T14:14:34;10.8;9.8;7.6
74440;PMS7003;62870;54.692;25.284;2024-02-23T14:19:16;11.6;10.4;8
74440;PMS7003;62870;54.692;25.284;2024-02-23T14:24:52;10.8;10;7.8
74440;PMS7003;62870;54.692;25.284;2024-02-23T14:29:34;10.6;10;7.8
74440;PMS7003;62870;54.692;25.284;2024-02-23T14:34:14;10.6;9.6;7.2
74440;PMS7003;62870;54.692;25.284;2024-02-23T14:40:02;11.5;11.3;8.3
74440;PMS7003;62870;54.692;25.284;2024-02-23T14:45:03;12.4;12.2;8.6
74440;PMS7003;62870;54.692;25.284;2024-02-23T14:49:34;12.4;12.2;8.6
74440;PMS7003;62870;54.692;25.284;2024-02-23T14:54:30;13.4;12.6;9.8
74440;PMS7003;62870;54.692;25.284;2024-02-23T15:00:05;14;13.4;10.4
74440;PMS7003;62870;54.692;25.284;2024-02-23T15:04:14;14;13.4;10.4
74440;PMS7003;62870;54.692;25.284;2024-02-23T15:09:38;13;12.2;9.2
74440;PMS7003;62870;54.692;25.284;2024-02-23T15:14:20;11.4;10.6;8.8
74440;PMS7003;62870;54.692;25.284;2024-02-23T15:19:38;13;12.4;9
74440;PMS7003;62870;54.692;25.284;2024-02-23T15:24:46;13.6;12.6;9.2
74440;PMS7003;62870;54.692;25.284;2024-02-23T15:30:03;13.2;11.8;9.2
74440;PMS7003;62870;54.692;25.284;2024-02-23T15:35:00;13.2;11.8;9.2
74440;PMS7003;62870;54.692;25.284;2024-02-23T15:39:14;13.8;13.2;10.4
74440;PMS7003;62870;54.692;25.284;2024-02-23T15:44:50;12.8;12.3;9.3
74440;PMS7003;62870;54.692;25.284;2024-02-23T15:49:30;13.2;12.4;9.6
74440;PMS7003;62870;54.692;25.284;2024-02-23T15:54:46;14.8;13.6;10.2
74440;PMS7003;62870;54.692;25.284;2024-02-23T15:59:36;15.6;13.8;10.4
74440;PMS7003;62870;54.692;25.284;2024-02-23T16:04:36;14.2;13.4;10.6
74440;PMS7003;62870;54.692;25.284;2024-02-23T16:09:36;14.6;13.4;10
74440;PMS7003;62870;54.692;25.284;2024-02-23T16:15:00;14.8;14;10.8
74440;PMS7003;62870;54.692;25.284;2024-02-23T16:19:46;13.8;13.2;10.2
74440;PMS7003;62870;54.692;25.284;2024-02-23T16:24:38;14.4;14;11
74440;PMS7003;62870;54.692;25.284;2024-02-23T16:29:27;15;14.2;11.2
74440;PMS7003;62870;54.692;25.284;2024-02-23T16:35:03;14.4;13.6;10.6
74440;PMS7003;62870;54.692;25.284;2024-02-23T16:39:42;14.4;13.6;10.6
74440;PMS7003;62870;54.692;25.284;2024-02-23T16:44:32;16.6;15.4;11.2
74440;PMS7003;62870;54.692;25.284;2024-02-23T16:49:16;14.8;13.8;10.8
74440;PMS7003;62870;54.692;25.284;2024-02-23T16:54:14;17.4;16.4;12.2
74440;PMS7003;62870;54.692;25.284;2024-02-23T16:59:34;16.8;16.2;12.4
74440;PMS7003;62870;54.692;25.284;2024-02-23T17:04:58;15.8;15.6;11.6
74440;PMS7003;62870;54.692;25.284;2024-02-23T17:10:00;16.4;15.8;12
74440;PMS7003;62870;54.692;25.284;2024-02-23T17:14:24;17.8;16.2;12.6
74440;PMS7003;62870;54.692;25.284;2024-02-23T17:20:00;18.2;16.8;12.8
74440;PMS7003;62870;54.692;25.284;2024-02-23T17:24:14;18.2;15.8;12.4
74440;PMS7003;62870;54.692;25.284;2024-02-23T17:29:46;17.6;17.2;12.8
74440;PMS7003;62870;54.692;25.284;2024-02-23T17:34:50;17.2;16.4;12.2
74440;PMS7003;62870;54.692;25.284;2024-02-23T17:39:50;18;16.8;13
74440;PMS7003;62870;54.692;25.284;2024-02-23T17:44:49;19;17.4;13.4
74440;PMS7003;62870;54.692;25.284;2024-02-23T17:50:03;19;18;13.8
74440;PMS7003;62870;54.692;25.284;2024-02-23T17:54:28;19;18;13.8
74440;PMS7003;62870;54.692;25.284;2024-02-23T18:00:05;18.6;17.8;13.8
74440;PMS7003;62870;54.692;25.284;2024-02-23T18:04:20;18.6;17.8;13.8
74440;PMS7003;62870;54.692;25.284;2024-02-23T18:10:03;22;20.2;15.2
74440;PMS7003;62870;54.692;25.284;2024-02-23T18:14:38;22;20.2;15.2
74440;PMS7003;62870;54.692;25.284;2024-02-23T18:19:24;20.4;19.8;14.6
74440;PMS7003;62870;54.692;25.284;2024-02-23T18:24:14;24;22.2;15.4
74440;PMS7003;62870;54.692;25.284;2024-02-23T18:29:20;22.4;21.2;15.8
74440;PMS7003;62870;54.692;25.284;2024-02-23T18:34:38;25.4;23.6;17.6
74440;PMS7003;62870;54.692;25.284;2024-02-23T18:39:20;23.2;21.6;16.6
74440;PMS7003;62870;54.692;25.284;2024-02-23T18:45:03;20.8;19.5;14.5
74440;PMS7003;62870;54.692;25.284;2024-02-23T18:49:26;20.8;19.5;14.5
74440;PMS7003;62870;54.692;25.284;2024-02-23T18:55:05;21.4;20.2;15.8
74440;PMS7003;62870;54.692;25.284;2024-02-23T18:59:24;21.4;20.2;15.8
74440;PMS7003;62870;54.692;25.284;2024-02-23T19:04:54;23;20.4;15.4
74440;PMS7003;62870;54.692;25.284;2024-02-23T19:09:48;22.6;21.2;15
74440;PMS7003;62870;54.692;25.284;2024-02-23T19:14:52;20.4;19.4;15.2
74440;PMS7003;62870;54.692;25.284;2024-02-23T19:19:45;20;19.2;14
74440;PMS7003;62870;54.692;25.284;2024-02-23T19:25:03;17.4;16.2;12.4
74440;PMS7003;62870;54.692;25.284;2024-02-23T19:29:48;17.4;16.2;12.4
74440;PMS7003;62870;54.692;25.284;2024-02-23T19:35:03;17.2;15.8;11.6
74440;PMS7003;62870;54.692;25.284;2024-02-23T19:40:05;16.6;16.2;11.8
74440;PMS7003;62870;54.692;25.284;2024-02-23T19:44:36;16.6;16.2;11.8
74440;PMS7003;62870;54.692;25.284;2024-02-23T19:50:05;16;14.4;11.6
74440;PMS7003;62870;54.692;25.284;2024-02-23T19:54:44;16;14.4;11.6
74440;PMS7003;62870;54.692;25.284;2024-02-23T19:59:38;15;14.2;11.2
74440;PMS7003;62870;54.692;25.284;2024-02-23T20:04:46;14.8;14;11
74440;PMS7003;62870;54.692;25.284;2024-02-23T20:09:22;13.8;13.8;11
74440;PMS7003;62870;54.692;25.284;2024-02-23T20:14:14;14.6;14.2;10.8
74440;PMS7003;62870;54.692;25.284;2024-02-23T20:19:14;12.2;11.8;9
74440;PMS7003;62870;54.692;25.284;2024-02-23T20:24:34;11.8;11.8;9.2
74440;PMS7003;62870;54.692;25.284;2024-02-23T20:30:05;10.8;10.6;8.4
74440;PMS7003;62870;54.692;25.284;2024-02-23T20:34:36;10.8;10.6;8.4
74440;PMS7003;62870;54.692;25.284;2024-02-23T20:39:32;12.6;11;9
74440;PMS7003;62870;54.692;25.284;2024-02-23T20:45:05;11;10.3;8
74440;PMS7003;62870;54.692;25.284;2024-02-23T20:49:55;11;10.3;8
74440;PMS7003;62870;54.692;25.284;2024-02-23T20:55:07;12.8;11.8;8.8
74440;PMS7003;62870;54.692;25.284;2024-02-23T21:00:07;12;11.6;8.8
74440;PMS7003;62870;54.692;25.284;2024-02-23T21:05:07;11.4;10.6;8.2
74440;PMS7003;62870;54.692;25.284;2024-02-23T21:10:05;11.8;11.4;8.8
74440;PMS7003;62870;54.692;25.284;2024-02-23T21:14:50;11.8;11.4;8.8
74440;PMS7003;62870;54.692;25.284;2024-02-23T21:19:24;11.4;10.6;8.6
74440;PMS7003;62870;54.692;25.284;2024-02-23T21:25:07;12.4;12;9.6
74440;PMS7003;62870;54.692;25.284;2024-02-23T21:29:22;12.4;12;9.6
74440;PMS7003;62870;54.692;25.284;2024-02-23T21:34:14;12.6;12.4;9.2
74440;PMS7003;62870;54.692;25.284;2024-02-23T21:39:57;12.4;11.6;9.2
74440;PMS7003;62870;54.692;25.284;2024-02-23T21:44:14;13.6;12.8;9.2
74440;PMS7003;62870;54.692;25.284;2024-02-23T21:49:22;13.4;12.2;9.8
74440;PMS7003;62870;54.692;25.284;2024-02-23T21:54:14;12.3;12.3;9.3
74440;PMS7003;62870;54.692;25.284;2024-02-23T21:59:14;15;13;10.2
74440;PMS7003;62870;54.692;25.284;2024-02-23T22:05:05;12.6;11.6;9
74440;PMS7003;62870;54.692;25.284;2024-02-23T22:09:44;12.6;11.6;9
74440;PMS7003;62870;54.692;25.284;2024-02-23T22:14:34;13.2;12.2;9.2
74440;PMS7003;62870;54.692;25.284;2024-02-23T22:19:46;14.6;13.2;9.6
74440;PMS7003;62870;54.692;25.284;2024-02-23T22:24:17;13;13;10
74440;PMS7003;62870;54.692;25.284;2024-02-23T22:29:50;13.2;12.6;9.4
74440;PMS7003;62870;54.692;25.284;2024-02-23T22:34:32;13.8;12.8;10.4
74440;PMS7003;62870;54.692;25.284;2024-02-23T22:39:33;16.4;15.2;10.4
74440;PMS7003;62870;54.692;25.284;2024-02-23T22:44:42;12.6;11.8;8.8
74440;PMS7003;62870;54.692;25.284;2024-02-23T22:50:05;13.8;13;10
74440;PMS7003;62870;54.692;25.284;2024-02-23T22:54:30;13.8;13;10
74440;PMS7003;62870;54.692;25.284;2024-02-23T22:59:51;13.6;13.2;10.6
74440;PMS7003;62870;54.692;25.284;2024-02-23T23:04:14;14.8;13.8;10.8
74440;PMS7003;62870;54.692;25.284;2024-02-23T23:10:05;13.2;13;10.2
74440;PMS7003;62870;54.692;25.284;2024-02-23T23:14:43;13.2;13;10.2
74440;PMS7003;62870;54.692;25.284;2024-02-23T23:19:57;13.2;12.4;9.4
74440;PMS7003;62870;54.692;25.284;2024-02-23T23:24:49;13.6;13.4;10
74440;PMS7003;62870;54.692;25.284;2024-02-23T23:29:37;13.2;12;9.6
74440;PMS7003;62870;54.692;25.284;2024-02-23T23:34:51;14.6;13.2;9.2
74440;PMS7003;62870;54.692;25.284;2024-02-23T23:40:07;13.8;12.8;9
74440;PMS7003;62870;54.692;25.284;2024-02-23T23:44:29;13.8;12.8;9
74440;PMS7003;62870;54.692;25.284;2024-02-23T23:49:15;14;13;10.2
74440;PMS7003;62870;54.692;25.284;2024-02-23T23:54:47;14.8;13;10.3
74440;PMS7003;62870;54.692;25.284;2024-02-23T23:59:15;14.8;13.6;10.6
